Portada
METAR-TAF:

METAR-TAF

Aeropuertos :

Aeropuerto de Jerez

Jerez de la Frontera, España

latitud: 36-45N, longitud: 006-04W, altitud: 27 m

Observación

El informe se hizo hace 12 minutos, a las 01:30 UTC
Viento 1 kt del noreste
Temperatura 14°C
Humedad 94%
Presión 1014 hPa
Visibilidad 10 km o más

METAR: LEJR 230130Z AUTO 04001KT 9999 NCD 14/13 Q1014

Hora: 03:42 (01:42 UTC)

Pronóstico

El informe se hizo hace 2 horas y 42 minutos, a las 23:00 UTC
Pronóstico válido del 23 a las 00 UTC al 23 a las 24 UTC
Viento 2 kt con dirección variable
Visibilidad 10 km o más
sin nubes por debajo de 1500 m y sin presencia de cumulonimbus.
Probabilidad 40% :
Temporalmente
del 23 a las 12 UTC al 23 a las 18 UTC
Escasas nubes a una altura de 2000 ft, Cumulus congestus.
chaparrones de lluvia

TAF: LEJR 222300Z 2300/2324 VRB02KT CAVOK TX26/2315Z TN14/2305Z PROB40 TEMPO 2312/2318 SHRA FEW020TCU

Observaciones y pronósticos meteorológicos de más de 4000 aeropuertos (mensajes METAR y TAF).

Los puntos amarillos y rojos representan las estaciones disponibles.

Ponga el ratón en el punto deseado para ver el nombre de la estación.

Haga clic para ver las observaciones y los pronósticos meteorológicos.

Para cambiar el mapa : haga clic en los botones verdes con una cruz de color negro para hacer un zoom, en el botón verde con un guión para alejar o en las flechas verdes para mapas adyacentes.


METAR-TAF: